Dai7sineimaru — JD2631 — position and weather

sailwx.info

Track history (hours):
 
Tides and Currents Weather Stations Pressure Air Temp Water Temp Dewpoint Dewpoint Depression Visibility Wind Speed Wind Dir Waves Ship Positions

Dai7sineimaru

Last reported at 2018-Jan-20 01:00 UTC. Time now 2018-Jan-20 01:22 UTC.
Position N 35°02' E 136°52'.

Length 73 m; draft 4 m.

MMSI: 431000488.

Date/timePositionNaut miles runAvg speedWind from/ knotsBaromVisibWave heightAir tempDewpointWater temp
2018-Jan-20 01:00N 35°02' E 136°52'0 0.0
2018-Jan-20 00:30N 35°02' E 136°52'0 0.0
2018-Jan-20 00:00N 35°02' E 136°52'0 0.0
2018-Jan-19 23:30N 35°02' E 136°52'0 0.0
2018-Jan-19 23:00N 35°02' E 136°52'0 0.0
2018-Jan-19 22:30N 35°02' E 136°52'2 4.6
2018-Jan-19 22:00N 35°00' E 136°50'2 3.3
2018-Jan-19 21:30N 34°59' E 136°48'0 0.1
2018-Jan-19 21:00N 34°59' E 136°48'0 0.1
2018-Jan-19 20:30N 34°59' E 136°48'0 0.1
2018-Jan-19 20:00N 34°59' E 136°48'0 0.1
2018-Jan-19 19:30N 34°59' E 136°48'0 0.0
2018-Jan-19 19:00N 34°59' E 136°48'0 0.0
2018-Jan-19 18:30N 34°59' E 136°48'0 0.0
2018-Jan-19 18:00N 34°59' E 136°48'0 0.1
2018-Jan-19 17:30N 34°59' E 136°48'0 0.0
2018-Jan-19 17:00N 34°59' E 136°48'0 0.1
2018-Jan-19 16:30N 34°59' E 136°48'0 0.0
2018-Jan-19 16:00N 34°59' E 136°48'0 0.1
2018-Jan-19 15:30N 34°59' E 136°48'0 0.0
2018-Jan-19 15:00N 34°59' E 136°48'0 0.0
2018-Jan-19 14:30N 34°59' E 136°48'0 0.0
2018-Jan-19 14:00N 34°59' E 136°48'0 0.0
2018-Jan-19 13:30N 34°59' E 136°48'0 0.0
2018-Jan-19 13:00N 34°59' E 136°48'0 0.0
2018-Jan-19 12:30N 34°59' E 136°48'0 0.1
2018-Jan-19 12:00N 34°59' E 136°48'0 0.0
2018-Jan-19 11:30N 34°59' E 136°48'0 0.1
2018-Jan-19 11:00N 34°59' E 136°48'0 0.0
2018-Jan-19 10:30N 34°59' E 136°48'0 0.0
2018-Jan-19 10:00N 34°59' E 136°48'0 0.0
2018-Jan-19 09:30N 34°59' E 136°48'0 0.0
2018-Jan-19 09:00N 34°59' E 136°48'0 0.0
2018-Jan-19 08:30N 34°59' E 136°48'0 0.0
2018-Jan-19 08:00N 34°59' E 136°48'0 0.0
2018-Jan-19 07:30N 34°59' E 136°48'1 1.8
2018-Jan-19 07:00N 34°58' E 136°48'611.8
2018-Jan-19 06:30N 34°53' E 136°47'611.8
2018-Jan-19 06:00N 34°47' E 136°49'612.0
2018-Jan-19 05:30N 34°41' E 136°52'104 8.4
2018-Jan-18 17:10N 33°49' E 135°04'213.4
2018-Jan-18 17:00N 33°51' E 135°02'613.2
2018-Jan-18 16:30N 33°56' E 134°57'713.1
2018-Jan-18 15:57N 34°01' E 134°51'613.2
2018-Jan-18 15:30N 34°06' E 134°46'813.8
2018-Jan-18 14:57N 34°12' E 134°41'614.2
2018-Jan-18 14:30N 34°16' E 134°35'712.7
2018-Jan-18 13:59N 34°19' E 134°28'  
2018-Jan-10 21:30N 41°28' E 141°29'1611.4
2018-Jan-10 20:08N 41°40' E 141°16'210.5
2018-Jan-10 19:59N 41°41' E 141°16'510.7
2018-Jan-10 19:31N 41°46' E 141°14'  
Track history (hours):
 
Tides and Currents Weather Stations Pressure Air Temp Water Temp Dewpoint Dewpoint Depression Visibility Wind Speed Wind Dir Waves Ship Positions

Dai7sineimaru

Last reported at 2018-Jan-20 01:00 UTC. Time now 2018-Jan-20 01:22 UTC.
Position N 35°02' E 136°52'.

Length 73 m; draft 4 m.

MMSI: 431000488.

Date/timePositionNaut miles runAvg speedWind from/ knotsBaromVisibWave heightAir tempDewpointWater temp
2018-Jan-20 01:00N 35°02' E 136°52'0 0.0
2018-Jan-20 00:30N 35°02' E 136°52'0 0.0
2018-Jan-20 00:00N 35°02' E 136°52'0 0.0
2018-Jan-19 23:30N 35°02' E 136°52'0 0.0
2018-Jan-19 23:00N 35°02' E 136°52'0 0.0
2018-Jan-19 22:30N 35°02' E 136°52'2 4.6
2018-Jan-19 22:00N 35°00' E 136°50'2 3.3
2018-Jan-19 21:30N 34°59' E 136°48'0 0.1
2018-Jan-19 21:00N 34°59' E 136°48'0 0.1
2018-Jan-19 20:30N 34°59' E 136°48'0 0.1
2018-Jan-19 20:00N 34°59' E 136°48'0 0.1
2018-Jan-19 19:30N 34°59' E 136°48'0 0.0
2018-Jan-19 19:00N 34°59' E 136°48'0 0.0
2018-Jan-19 18:30N 34°59' E 136°48'0 0.0
2018-Jan-19 18:00N 34°59' E 136°48'0 0.1
2018-Jan-19 17:30N 34°59' E 136°48'0 0.0
2018-Jan-19 17:00N 34°59' E 136°48'0 0.1
2018-Jan-19 16:30N 34°59' E 136°48'0 0.0
2018-Jan-19 16:00N 34°59' E 136°48'0 0.1
2018-Jan-19 15:30N 34°59' E 136°48'0 0.0
2018-Jan-19 15:00N 34°59' E 136°48'0 0.0
2018-Jan-19 14:30N 34°59' E 136°48'0 0.0
2018-Jan-19 14:00N 34°59' E 136°48'0 0.0
2018-Jan-19 13:30N 34°59' E 136°48'0 0.0
2018-Jan-19 13:00N 34°59' E 136°48'0 0.0
2018-Jan-19 12:30N 34°59' E 136°48'0 0.1
2018-Jan-19 12:00N 34°59' E 136°48'0 0.0
2018-Jan-19 11:30N 34°59' E 136°48'0 0.1
2018-Jan-19 11:00N 34°59' E 136°48'0 0.0
2018-Jan-19 10:30N 34°59' E 136°48'0 0.0
2018-Jan-19 10:00N 34°59' E 136°48'0 0.0
2018-Jan-19 09:30N 34°59' E 136°48'0 0.0
2018-Jan-19 09:00N 34°59' E 136°48'0 0.0
2018-Jan-19 08:30N 34°59' E 136°48'0 0.0
2018-Jan-19 08:00N 34°59' E 136°48'0 0.0
2018-Jan-19 07:30N 34°59' E 136°48'1 1.8
2018-Jan-19 07:00N 34°58' E 136°48'611.8
2018-Jan-19 06:30N 34°53' E 136°47'611.8
2018-Jan-19 06:00N 34°47' E 136°49'612.0
2018-Jan-19 05:30N 34°41' E 136°52'104 8.4
2018-Jan-18 17:10N 33°49' E 135°04'213.4
2018-Jan-18 17:00N 33°51' E 135°02'613.2
2018-Jan-18 16:30N 33°56' E 134°57'713.1
2018-Jan-18 15:57N 34°01' E 134°51'613.2
2018-Jan-18 15:30N 34°06' E 134°46'813.8
2018-Jan-18 14:57N 34°12' E 134°41'614.2
2018-Jan-18 14:30N 34°16' E 134°35'712.7
2018-Jan-18 13:59N 34°19' E 134°28'  
2018-Jan-10 21:30N 41°28' E 141°29'1611.4
2018-Jan-10 20:08N 41°40' E 141°16'210.5
2018-Jan-10 19:59N 41°41' E 141°16'510.7
2018-Jan-10 19:31N 41°46' E 141°14'  

Dump ship's entire track history